Time;durP1;ratioP1;P1;durP2;ratioP2;P2;SDS_P1;SDS_P2;PMS_P1;PMS_P2;Temp;Humidity;BMP_temperature;BMP_pressure;BME280_temperature;BME280_humidity;BME280_pressure;Samples;Min_cycle;Max_cycle;Signal;HPM_P1;HPM_P2
2023/10/18 00:02:10;;;;;;;7.07;2.92;;;6.70;99.90;;;;;;5063168;28;20044;-78
2023/10/18 00:04:38;;;;;;;4.82;2.15;;;6.70;99.90;;;;;;5093361;27;20086;-78
2023/10/18 00:07:04;;;;;;;12.25;3.03;;;6.70;99.90;;;;;;5047169;28;20561;-78
2023/10/18 00:09:42;;;;;;;6.07;2.50;;;6.70;99.90;;;;;;5046517;28;20029;-77
2023/10/18 00:12:08;;;;;;;7.85;2.28;;;6.70;99.90;;;;;;5061620;28;20041;-78
2023/10/18 00:14:34;;;;;;;6.22;2.90;;;6.70;99.90;;;;;;5049486;28;20413;-78
2023/10/18 00:17:00;;;;;;;11.77;2.70;;;6.70;99.90;;;;;;5062916;28;20064;-78
2023/10/18 00:19:26;;;;;;;8.13;3.10;;;6.70;99.90;;;;;;5045504;28;20040;-78
2023/10/18 00:21:55;;;;;;;7.20;2.72;;;6.70;99.90;;;;;;5064756;28;20032;-78
2023/10/18 00:24:21;;;;;;;8.43;2.83;;;6.70;99.90;;;;;;5091629;27;20033;-78
2023/10/18 00:26:46;;;;;;;7.18;2.97;;;6.70;99.90;;;;;;5062705;28;20071;-78
2023/10/18 00:29:12;;;;;;;7.30;3.20;;;6.70;99.90;;;;;;5062394;28;20031;-78
2023/10/18 00:31:38;;;;;;;7.32;2.55;;;6.70;99.90;;;;;;5061295;28;20098;-78
2023/10/18 00:34:06;;;;;;;8.50;2.95;;;6.70;99.90;;;;;;5047778;28;20040;-77
2023/10/18 00:36:32;;;;;;;7.13;2.88;;;6.70;99.90;;;;;;5045673;28;20036;-78
2023/10/18 00:38:58;;;;;;;8.65;2.92;;;6.70;99.90;;;;;;5065256;28;20090;-77
2023/10/18 00:41:32;;;;;;;11.40;3.08;;;6.70;99.90;;;;;;5057550;28;20036;-77
2023/10/18 00:43:58;;;;;;;6.55;3.00;;;6.70;99.90;;;;;;5068043;28;20044;-77
2023/10/18 00:46:24;;;;;;;6.85;2.70;;;6.70;99.90;;;;;;5066532;28;20528;-77
2023/10/18 00:48:51;;;;;;;5.40;3.13;;;6.70;99.90;;;;;;5067971;28;20790;-78
2023/10/18 00:51:18;;;;;;;8.43;3.00;;;6.70;99.90;;;;;;5081797;28;20124;-78
2023/10/18 00:53:46;;;;;;;11.18;3.72;;;6.70;99.90;;;;;;5065427;28;20913;-77
2023/10/18 00:56:15;;;;;;;10.65;3.30;;;6.70;99.90;;;;;;5044489;28;20047;-78
2023/10/18 00:58:41;;;;;;;7.32;2.72;;;6.70;99.90;;;;;;5064050;28;20050;-78
2023/10/18 01:01:10;;;;;;;8.65;3.10;;;6.70;99.90;;;;;;5042059;28;20089;-78
2023/10/18 01:03:45;;;;;;;13.40;3.35;;;6.70;99.90;;;;;;5062612;28;20040;-78
2023/10/18 01:06:27;;;;;;;9.90;3.38;;;6.70;99.90;;;;;;5059929;28;20036;-77
2023/10/18 01:08:53;;;;;;;5.25;2.70;;;6.70;99.90;;;;;;5047295;28;20089;-77
2023/10/18 01:11:23;;;;;;;8.13;2.95;;;6.60;99.90;;;;;;5046324;28;20490;-78
2023/10/18 01:13:49;;;;;;;14.40;3.80;;;6.60;99.90;;;;;;5047927;28;20025;-78
2023/10/18 01:16:23;;;;;;;8.32;4.25;;;6.60;99.90;;;;;;5060404;28;20036;-78
2023/10/18 01:18:50;;;;;;;9.63;4.22;;;6.60;99.90;;;;;;5046041;28;20410;-78
2023/10/18 01:21:19;;;;;;;11.07;3.75;;;6.60;99.90;;;;;;5062768;28;20089;-78
2023/10/18 01:23:53;;;;;;;15.05;4.10;;;6.60;99.90;;;;;;5065136;28;20040;-78
2023/10/18 01:26:24;;;;;;;8.95;3.60;;;6.50;99.90;;;;;;5060519;28;20064;-77
2023/10/18 01:28:51;;;;;;;9.20;3.05;;;6.50;99.90;;;;;;5091755;28;20037;-78
2023/10/18 01:31:18;;;;;;;6.50;3.60;;;6.50;99.90;;;;;;5042594;28;20037;-78
2023/10/18 01:33:45;;;;;;;9.82;3.63;;;6.50;99.90;;;;;;5042230;28;20817;-78
2023/10/18 01:36:15;;;;;;;7.60;2.50;;;6.50;99.90;;;;;;5077440;28;20062;-78
2023/10/18 01:38:49;;;;;;;9.30;3.00;;;6.50;99.90;;;;;;5060082;28;20070;-78
2023/10/18 01:41:33;;;;;;;10.73;4.97;;;6.50;99.90;;;;;;5090246;28;20152;-78
2023/10/18 01:44:07;;;;;;;14.68;3.75;;;6.50;99.90;;;;;;5046997;28;20070;-78
2023/10/18 01:46:33;;;;;;;17.80;4.82;;;6.40;99.90;;;;;;5059747;28;20394;-78
2023/10/18 01:49:00;;;;;;;5.32;3.00;;;6.50;99.90;;;;;;5056213;28;20032;-78
2023/10/18 01:51:27;;;;;;;11.57;2.97;;;6.40;99.90;;;;;;5065904;28;20047;-78
2023/10/18 01:53:54;;;;;;;14.60;4.78;;;6.40;99.90;;;;;;5062939;28;20458;-78
2023/10/18 01:56:21;;;;;;;7.13;3.47;;;6.40;99.90;;;;;;5059333;28;20041;-78
2023/10/18 01:58:50;;;;;;;14.50;4.60;;;6.40;99.90;;;;;;5057132;28;20963;-78
2023/10/18 02:01:16;;;;;;;9.05;3.72;;;6.40;99.90;;;;;;5056744;28;20032;-77
2023/10/18 02:03:44;;;;;;;10.32;4.05;;;6.40;99.90;;;;;;5059074;28;20045;-78
2023/10/18 02:06:14;;;;;;;12.13;4.35;;;6.40;99.90;;;;;;5077425;28;20060;-78
2023/10/18 02:08:40;;;;;;;11.43;3.88;;;6.50;99.90;;;;;;5062863;28;20050;-78
2023/10/18 02:11:08;;;;;;;10.23;4.70;;;6.50;99.90;;;;;;5060657;28;20047;-78
2023/10/18 02:13:36;;;;;;;15.57;4.65;;;6.50;99.90;;;;;;5076826;28;20121;-78
2023/10/18 02:16:06;;;;;;;6.93;3.50;;;6.50;99.90;;;;;;5057029;28;20064;-78
2023/10/18 02:18:34;;;;;;;9.60;3.25;;;6.50;99.90;;;;;;5060730;28;20048;-78
2023/10/18 02:21:01;;;;;;;13.07;4.00;;;6.40;99.90;;;;;;5042277;28;20036;-78
2023/10/18 02:23:34;;;;;;;10.20;4.97;;;6.50;99.90;;;;;;5059003;28;20045;-78
2023/10/18 02:26:09;;;;;;;10.32;4.80;;;6.50;99.90;;;;;;5059667;28;20104;-78
2023/10/18 02:28:36;;;;;;;12.30;4.60;;;6.50;99.90;;;;;;5041170;28;20530;-78
2023/10/18 02:31:13;;;;;;;9.70;3.63;;;6.50;99.90;;;;;;5061029;28;20500;-78
2023/10/18 02:33:44;;;;;;;8.93;3.00;;;6.50;99.90;;;;;;5043654;28;20604;-78
2023/10/18 02:36:11;;;;;;;11.00;3.38;;;6.40;99.90;;;;;;5057928;28;20049;-78
2023/10/18 02:38:38;;;;;;;9.82;4.32;;;6.50;99.90;;;;;;5058019;28;20048;-78
2023/10/18 02:41:14;;;;;;;10.82;3.65;;;6.50;99.90;;;;;;5058489;28;20045;-78
2023/10/18 02:43:45;;;;;;;9.45;3.67;;;6.50;99.90;;;;;;5042387;28;20674;-78
2023/10/18 02:46:12;;;;;;;15.93;4.25;;;6.40;99.90;;;;;;5057312;28;20033;-78
2023/10/18 02:48:40;;;;;;;9.40;4.70;;;6.40;99.90;;;;;;5059223;28;20045;-78
2023/10/18 02:51:06;;;;;;;6.53;2.97;;;6.40;99.90;;;;;;5043046;28;20107;-78
2023/10/18 02:53:40;;;;;;;8.32;3.30;;;6.40;99.90;;;;;;5061287;28;20218;-78
2023/10/18 02:56:06;;;;;;;6.05;2.95;;;6.40;99.90;;;;;;5060650;28;20513;-78
2023/10/18 02:58:33;;;;;;;9.15;3.35;;;6.40;99.90;;;;;;5060850;28;20036;-78
2023/10/18 03:01:05;;;;;;;10.00;3.92;;;6.40;99.90;;;;;;5044015;28;20048;-78
2023/10/18 03:03:32;;;;;;;5.82;2.55;;;6.30;99.90;;;;;;5045504;28;21721;-78
2023/10/18 03:06:01;;;;;;;10.02;4.03;;;6.30;99.90;;;;;;5060005;28;20363;-78
2023/10/18 03:08:28;;;;;;;9.63;2.92;;;6.30;99.90;;;;;;5061982;28;20051;-78
2023/10/18 03:10:54;;;;;;;7.30;3.30;;;6.30;99.90;;;;;;5043439;28;20040;-78
2023/10/18 03:13:23;;;;;;;6.85;3.60;;;6.30;99.90;;;;;;5064492;28;20036;-78
2023/10/18 03:16:06;;;;;;;9.02;3.88;;;6.30;99.90;;;;;;5048896;28;20072;-78
2023/10/18 03:18:34;;;;;;;11.18;3.70;;;6.30;99.90;;;;;;5061383;28;20044;-78
2023/10/18 03:21:08;;;;;;;6.93;2.85;;;6.30;99.90;;;;;;5055600;28;20041;-78
2023/10/18 03:23:44;;;;;;;7.55;3.45;;;6.30;99.90;;;;;;5062358;28;20040;-78
2023/10/18 03:26:11;;;;;;;11.70;4.03;;;6.30;99.90;;;;;;5043400;28;20029;-78
2023/10/18 03:28:40;;;;;;;10.32;4.32;;;6.20;99.90;;;;;;5062035;28;20564;-78
2023/10/18 03:31:27;;;;;;;8.63;4.25;;;6.30;99.90;;;;;;5042771;28;20032;-78
2023/10/18 03:33:55;;;;;;;10.15;3.28;;;6.20;99.90;;;;;;5047948;28;20383;-78
2023/10/18 03:36:21;;;;;;;13.43;3.80;;;6.20;99.90;;;;;;5047423;28;20067;-78
2023/10/18 03:38:54;;;;;;;9.38;3.58;;;6.20;99.90;;;;;;5059314;28;20063;-78
2023/10/18 03:41:25;;;;;;;10.73;3.40;;;6.20;99.90;;;;;;5093445;28;20414;-78
2023/10/18 03:44:03;;;;;;;9.20;3.20;;;6.20;99.90;;;;;;5099626;28;20029;-78
2023/10/18 03:46:29;;;;;;;7.07;3.38;;;6.20;99.90;;;;;;5103673;27;20032;-78
2023/10/18 03:48:56;;;;;;;8.57;3.58;;;6.20;99.90;;;;;;5078381;28;20044;-78
2023/10/18 03:51:25;;;;;;;5.95;2.28;;;6.20;99.90;;;;;;5067931;28;20082;-78
2023/10/18 03:53:55;;;;;;;8.65;4.10;;;6.20;99.90;;;;;;5061120;28;20047;-78
2023/10/18 03:56:25;;;;;;;9.65;3.45;;;6.20;99.90;;;;;;5046547;28;20138;-78
2023/10/18 03:59:01;;;;;;;8.80;3.88;;;6.20;99.90;;;;;;5046512;28;20601;-78
2023/10/18 04:01:41;;;;;;;9.15;3.35;;;6.20;99.90;;;;;;5059969;28;20579;-78
2023/10/18 04:04:07;;;;;;;11.40;4.88;;;6.10;99.90;;;;;;5046427;28;20032;-78
2023/10/18 04:06:35;;;;;;;6.38;3.50;;;6.10;99.90;;;;;;5060971;28;20082;-77
2023/10/18 04:09:13;;;;;;;13.40;4.43;;;6.10;99.90;;;;;;5092078;28;20051;-77
2023/10/18 04:11:40;;;;;;;8.55;3.42;;;6.10;99.90;;;;;;5045812;28;20076;-78
2023/10/18 04:14:06;;;;;;;10.25;3.67;;;6.10;99.90;;;;;;5060980;28;20080;-78
2023/10/18 04:16:32;;;;;;;10.25;3.65;;;6.10;99.90;;;;;;5096792;28;20044;-78
2023/10/18 04:18:58;;;;;;;11.90;4.32;;;6.10;99.90;;;;;;5062643;28;20032;-78
2023/10/18 04:21:27;;;;;;;7.07;3.70;;;6.10;99.90;;;;;;5079199;28;20040;-78
2023/10/18 04:23:56;;;;;;;8.90;4.03;;;6.10;99.90;;;;;;5094820;28;20575;-78
2023/10/18 04:26:25;;;;;;;11.65;4.70;;;6.10;99.90;;;;;;5064084;28;20040;-77
2023/10/18 04:28:57;;;;;;;9.15;4.13;;;6.10;99.90;;;;;;5061090;28;20044;-77
2023/10/18 04:31:24;;;;;;;7.75;3.30;;;6.00;99.90;;;;;;5061133;28;20032;-78
2023/10/18 04:33:52;;;;;;;8.10;3.95;;;6.10;99.90;;;;;;5059268;28;20497;-78
2023/10/18 04:36:21;;;;;;;9.20;4.38;;;6.10;99.90;;;;;;5062968;28;20429;-77
2023/10/18 04:38:47;;;;;;;7.15;4.45;;;6.10;99.90;;;;;;5059757;28;20038;-78
2023/10/18 04:41:23;;;;;;;11.45;4.50;;;6.10;99.90;;;;;;5059467;28;20044;-78
2023/10/18 04:46:43;;;;;;;11.75;4.72;;;6.10;99.90;;;;;;5062158;28;20076;-78
2023/10/18 04:54:16;;;;;;;6.30;3.08;;;6.10;99.90;;;;;;5055242;28;20136;-78
2023/10/18 04:56:46;;;;;;;8.75;4.45;;;6.10;99.90;;;;;;5063405;28;20398;-78
2023/10/18 05:04:34;;;;;;;10.18;3.95;;;6.10;99.90;;;;;;5063160;28;20047;-78
2023/10/18 05:07:04;;;;;;;8.48;5.20;;;6.20;99.90;;;;;;5062473;28;20563;-78
2023/10/18 05:09:34;;;;;;;9.80;4.32;;;6.20;99.90;;;;;;5044074;28;20051;-78
2023/10/18 05:12:16;;;;;;;8.60;4.93;;;6.20;99.90;;;;;;5063024;28;20410;-78
2023/10/18 05:14:42;;;;;;;13.68;4.32;;;6.20;99.90;;;;;;5061479;28;20056;-78
2023/10/18 05:17:18;;;;;;;11.90;4.32;;;6.20;99.90;;;;;;5063028;28;20068;-78
2023/10/18 05:19:44;;;;;;;10.30;3.65;;;6.20;99.90;;;;;;5059628;28;20040;-78
2023/10/18 05:22:20;;;;;;;9.18;4.50;;;6.20;99.90;;;;;;5060938;28;20029;-78
2023/10/18 05:25:11;;;;;;;10.13;4.13;;;6.10;99.90;;;;;;5061211;28;20064;-78
2023/10/18 05:27:38;;;;;;;9.23;3.67;;;6.10;99.90;;;;;;5060689;28;20082;-78
2023/10/18 05:30:26;;;;;;;9.85;4.18;;;6.10;99.90;;;;;;5059345;28;20061;-78
2023/10/18 05:35:27;;;;;;;11.15;3.35;;;6.10;99.90;;;;;;5054206;28;20043;-78
2023/10/18 05:38:06;;;;;;;8.52;3.50;;;6.10;99.90;;;;;;5043356;28;20146;-78
2023/10/18 05:43:03;;;;;;;8.23;4.05;;;6.10;99.90;;;;;;5060274;28;20116;-79
2023/10/18 05:45:31;;;;;;;7.07;3.28;;;6.10;99.90;;;;;;5094170;28;20090;-79
2023/10/18 05:48:02;;;;;;;11.27;4.90;;;6.10;99.90;;;;;;5076430;28;20120;-78
2023/10/18 05:50:34;;;;;;;9.80;4.22;;;6.10;99.90;;;;;;5058110;28;20038;-79
2023/10/18 05:53:03;;;;;;;10.68;4.20;;;6.10;99.90;;;;;;5080341;28;20131;-79
2023/10/18 05:55:32;;;;;;;8.32;3.58;;;6.10;99.90;;;;;;5059999;28;20037;-80
2023/10/18 05:57:59;;;;;;;8.10;4.18;;;6.10;99.90;;;;;;5039549;28;20467;-79
2023/10/18 06:00:25;;;;;;;10.48;5.72;;;6.20;99.90;;;;;;5044753;28;20776;-79
2023/10/18 06:02:52;;;;;;;11.20;4.30;;;6.20;99.90;;;;;;5059448;28;20171;-79
2023/10/18 06:05:19;;;;;;;13.60;5.38;;;6.10;99.90;;;;;;5059215;28;20052;-79
2023/10/18 06:07:46;;;;;;;15.23;4.82;;;6.10;99.90;;;;;;5058861;28;20032;-79
2023/10/18 06:10:16;;;;;;;8.52;4.28;;;6.10;99.90;;;;;;5059503;28;20041;-78
2023/10/18 06:12:46;;;;;;;8.55;3.97;;;6.10;99.90;;;;;;5042317;28;20049;-81
2023/10/18 06:15:14;;;;;;;7.03;3.22;;;6.10;99.90;;;;;;5090375;28;20491;-79
2023/10/18 06:20:24;;;;;;;10.93;4.28;;;6.10;99.90;;;;;;5052272;28;20340;-78
2023/10/18 06:22:53;;;;;;;7.00;3.97;;;6.20;99.90;;;;;;5038489;28;20028;-78
2023/10/18 06:25:25;;;;;;;11.88;4.88;;;6.10;99.90;;;;;;5074689;28;20064;-79
2023/10/18 06:27:53;;;;;;;7.55;3.83;;;6.10;99.90;;;;;;5043632;28;20033;-77
2023/10/18 06:30:19;;;;;;;13.93;5.95;;;6.10;99.90;;;;;;5040521;28;20099;-78
2023/10/18 06:32:45;;;;;;;9.05;4.10;;;6.10;99.90;;;;;;5046180;28;20048;-78
2023/10/18 06:35:26;;;;;;;12.98;4.63;;;6.10;99.90;;;;;;5061332;28;20047;-78
2023/10/18 06:37:52;;;;;;;11.73;4.85;;;6.10;99.90;;;;;;5078590;28;20074;-78
2023/10/18 06:40:43;;;;;;;9.93;4.05;;;6.10;99.90;;;;;;5063946;28;20061;-78
2023/10/18 06:43:09;;;;;;;9.80;5.50;;;6.10;99.90;;;;;;5044178;28;20033;-78
2023/10/18 06:45:39;;;;;;;8.63;3.78;;;6.10;99.90;;;;;;5066100;28;20043;-78
2023/10/18 06:48:08;;;;;;;7.35;4.20;;;6.20;99.90;;;;;;5049087;28;20037;-78
2023/10/18 06:50:35;;;;;;;10.00;4.40;;;6.20;99.90;;;;;;5082065;28;20107;-78
2023/10/18 06:53:05;;;;;;;11.02;4.35;;;6.20;99.90;;;;;;5048696;28;20083;-78
2023/10/18 07:00:51;;;;;;;8.93;3.83;;;6.20;99.90;;;;;;5065992;28;20563;-78
2023/10/18 07:03:33;;;;;;;12.07;4.75;;;6.20;99.90;;;;;;5047607;28;20040;-78
2023/10/18 07:06:18;;;;;;;8.32;3.85;;;6.30;99.90;;;;;;5043060;28;20035;-78
2023/10/18 07:08:45;;;;;;;9.48;3.95;;;6.30;99.90;;;;;;5062814;28;20036;-78
2023/10/18 07:11:18;;;;;;;11.63;4.22;;;6.30;99.90;;;;;;5053534;28;20033;-78
2023/10/18 07:13:47;;;;;;;10.45;4.97;;;6.30;99.90;;;;;;5067037;28;20275;-78
2023/10/18 07:16:38;;;;;;;8.75;4.18;;;6.30;99.90;;;;;;5087759;28;20048;-77
2023/10/18 07:19:06;;;;;;;9.75;3.58;;;6.40;99.90;;;;;;5057611;28;20276;-78
2023/10/18 07:21:33;;;;;;;14.73;4.35;;;6.40;99.90;;;;;;5098920;28;20056;-78
2023/10/18 07:24:02;;;;;;;9.35;3.58;;;6.40;99.90;;;;;;5070229;28;20056;-77
2023/10/18 07:26:29;;;;;;;7.72;4.18;;;6.40;99.90;;;;;;5067754;28;20040;-77
2023/10/18 07:28:55;;;;;;;9.30;3.72;;;6.40;99.90;;;;;;5071345;28;20052;-78
2023/10/18 07:31:24;;;;;;;8.40;3.78;;;6.40;99.90;;;;;;5053899;28;20045;-77
2023/10/18 07:33:50;;;;;;;6.30;3.63;;;6.50;99.90;;;;;;5070355;28;20036;-77
2023/10/18 07:36:19;;;;;;;9.98;4.15;;;6.40;99.90;;;;;;5069787;28;20036;-77
2023/10/18 07:38:49;;;;;;;9.73;4.55;;;6.50;99.90;;;;;;5077793;28;20039;-78
2023/10/18 07:41:15;;;;;;;11.85;4.80;;;6.50;99.90;;;;;;5053450;28;20159;-78
2023/10/18 07:43:43;;;;;;;6.50;3.67;;;6.50;99.90;;;;;;5064048;28;20128;-79
2023/10/18 07:46:09;;;;;;;13.73;4.93;;;6.50;99.90;;;;;;5059954;28;20115;-79
2023/10/18 07:48:40;;;;;;;10.35;4.53;;;6.60;99.90;;;;;;5063331;28;20029;-80
2023/10/18 07:51:23;;;;;;;9.20;3.85;;;6.60;99.90;;;;;;5049652;28;20076;-79
2023/10/18 07:53:55;;;;;;;10.93;3.92;;;6.50;99.90;;;;;;5077895;28;20043;-78
2023/10/18 07:56:27;;;;;;;7.57;3.78;;;6.60;99.90;;;;;;5093867;28;20119;-78
2023/10/18 07:59:27;;;;;;;8.10;4.47;;;6.70;99.90;;;;;;5046466;28;20043;-78
2023/10/18 08:01:46;;;;;;;9.77;4.43;;;6.70;99.90;;;;;;5062513;28;20049;-78
2023/10/18 08:04:17;;;;;;;10.25;5.18;;;6.70;99.90;;;;;;5047108;28;20382;-77
2023/10/18 08:06:46;;;;;;;9.60;3.80;;;6.70;99.90;;;;;;5059725;28;20032;-78
2023/10/18 08:09:13;;;;;;;8.32;3.85;;;6.80;99.90;;;;;;5078385;28;20844;-78
2023/10/18 08:11:38;;;;;;;8.40;3.92;;;6.80;99.90;;;;;;5059759;28;20123;-78
2023/10/18 08:14:16;;;;;;;10.23;3.63;;;6.80;99.90;;;;;;5048117;28;20165;-78
2023/10/18 08:16:52;;;;;;;11.65;4.75;;;6.80;99.90;;;;;;5049589;28;20047;-78
2023/10/18 08:19:22;;;;;;;8.13;3.78;;;6.90;99.90;;;;;;5060241;28;20713;-78
2023/10/18 08:24:36;;;;;;;10.77;4.47;;;6.90;99.90;;;;;;5057474;28;20032;-78
2023/10/18 08:27:10;;;;;;;11.30;4.60;;;7.00;99.90;;;;;;5042431;28;20497;-78
2023/10/18 08:29:39;;;;;;;9.80;4.80;;;7.00;99.90;;;;;;5055164;28;20394;-77
2023/10/18 08:32:18;;;;;;;8.27;3.67;;;7.10;99.90;;;;;;5054421;28;20038;-78
2023/10/18 08:34:45;;;;;;;7.82;3.95;;;7.10;99.90;;;;;;5057772;28;20049;-79
2023/10/18 08:37:13;;;;;;;9.13;3.38;;;7.10;99.90;;;;;;5082441;28;20041;-78
2023/10/18 08:39:40;;;;;;;9.18;3.50;;;7.20;99.90;;;;;;5043084;28;20048;-78
2023/10/18 08:42:10;;;;;;;12.82;4.38;;;7.20;99.90;;;;;;5059909;28;20036;-78
2023/10/18 08:44:38;;;;;;;8.75;3.72;;;7.20;99.90;;;;;;5054385;28;20516;-77
2023/10/18 08:49:44;;;;;;;7.32;3.17;;;7.30;99.90;;;;;;5057666;28;20071;-77
2023/10/18 08:52:11;;;;;;;7.88;3.67;;;7.30;99.90;;;;;;5051707;28;20036;-77
2023/10/18 08:54:41;;;;;;;9.98;3.70;;;7.40;99.90;;;;;;5080697;28;20506;-77
2023/10/18 08:57:11;;;;;;;9.20;4.13;;;7.40;99.90;;;;;;5060815;28;20039;-77
2023/10/18 08:59:45;;;;;;;14.20;3.72;;;7.50;99.90;;;;;;5060363;28;20052;-77
2023/10/18 09:02:23;;;;;;;11.48;3.10;;;7.50;99.90;;;;;;5062443;28;20051;-77
2023/10/18 09:04:54;;;;;;;8.15;3.25;;;7.60;99.90;;;;;;5076930;28;20040;-77
2023/10/18 09:07:54;;;;;;;8.73;4.40;;;7.60;99.90;;;;;;5043760;28;20036;-76
2023/10/18 09:10:13;;;;;;;11.18;4.43;;;7.60;99.90;;;;;;5060019;28;20044;-76
2023/10/18 09:17:59;;;;;;;8.68;3.70;;;7.70;99.90;;;;;;5058539;28;20435;-77
2023/10/18 09:20:26;;;;;;;9.82;3.20;;;7.80;99.90;;;;;;5062816;28;20044;-76
2023/10/18 09:22:53;;;;;;;8.60;3.95;;;7.80;99.90;;;;;;5044227;28;20041;-77
2023/10/18 09:25:24;;;;;;;7.85;3.88;;;7.90;99.90;;;;;;5039635;28;20059;-75
2023/10/18 09:27:51;;;;;;;10.75;3.65;;;7.90;99.90;;;;;;5051626;28;20094;-78
2023/10/18 09:30:20;;;;;;;8.80;3.28;;;7.90;99.90;;;;;;5057247;28;20134;-77
2023/10/18 09:32:46;;;;;;;6.30;3.30;;;7.90;99.90;;;;;;5054908;28;20398;-78
2023/10/18 09:35:13;;;;;;;8.75;3.45;;;8.00;99.90;;;;;;5047489;28;20044;-77
2023/10/18 09:37:39;;;;;;;8.60;3.33;;;8.00;99.90;;;;;;5044574;28;20047;-78
2023/10/18 09:40:05;;;;;;;6.72;3.08;;;8.10;99.90;;;;;;5053354;28;22494;-77
2023/10/18 09:42:31;;;;;;;11.02;3.65;;;8.10;99.90;;;;;;5060612;28;20039;-77
2023/10/18 09:44:57;;;;;;;8.20;3.15;;;8.10;99.90;;;;;;5064656;28;20115;-77
2023/10/18 09:47:27;;;;;;;8.95;3.50;;;8.20;99.90;;;;;;5098609;28;20086;-77
2023/10/18 09:49:56;;;;;;;7.72;2.88;;;8.20;99.90;;;;;;5059926;28;20416;-77
2023/10/18 09:52:24;;;;;;;4.88;2.45;;;8.20;99.90;;;;;;5049951;28;20048;-77
2023/10/18 09:54:50;;;;;;;6.47;3.00;;;8.30;99.90;;;;;;5044826;28;20117;-78
2023/10/18 09:57:24;;;;;;;6.15;2.78;;;8.30;99.90;;;;;;5052713;28;20130;-77
2023/10/18 09:59:57;;;;;;;8.05;3.03;;;8.30;99.90;;;;;;5072627;28;20047;-78
2023/10/18 10:02:24;;;;;;;6.93;2.92;;;8.40;99.90;;;;;;5091216;28;20036;-77
2023/10/18 10:04:52;;;;;;;7.00;2.60;;;8.40;99.90;;;;;;5057989;28;20150;-77
2023/10/18 10:07:27;;;;;;;9.75;4.18;;;8.50;99.90;;;;;;5059161;28;20163;-77
2023/10/18 10:10:07;;;;;;;6.25;3.17;;;8.50;99.90;;;;;;5057043;28;20406;-77
2023/10/18 10:12:34;;;;;;;7.03;2.88;;;8.50;99.90;;;;;;5057254;28;20562;-79
2023/10/18 10:15:00;;;;;;;5.35;2.88;;;8.60;99.90;;;;;;5072133;28;20040;-77
2023/10/18 10:17:31;;;;;;;5.80;2.45;;;8.60;99.90;;;;;;5059744;28;20101;-76
2023/10/18 10:20:10;;;;;;;8.15;2.83;;;8.60;99.90;;;;;;5060381;28;20474;-77
2023/10/18 10:22:37;;;;;;;5.78;2.65;;;8.70;99.90;;;;;;5057898;28;20040;-77
2023/10/18 10:25:04;;;;;;;7.60;3.15;;;8.70;99.90;;;;;;5046658;28;20066;-76
2023/10/18 10:30:03;;;;;;;7.40;2.95;;;8.80;99.90;;;;;;5060443;28;20044;-77
2023/10/18 10:32:30;;;;;;;6.97;2.72;;;8.80;99.90;;;;;;5060441;28;20041;-77
2023/10/18 10:35:20;;;;;;;6.88;2.63;;;8.80;99.90;;;;;;5096039;28;20306;-77
2023/10/18 10:37:52;;;;;;;6.72;2.88;;;8.90;99.90;;;;;;5042633;28;20059;-77
2023/10/18 10:43:14;;;;;;;5.50;2.05;;;9.00;99.90;;;;;;5058630;28;20036;-77
2023/10/18 10:48:18;;;;;;;4.50;2.42;;;9.00;99.90;;;;;;5060882;28;20044;-77
2023/10/18 10:50:51;;;;;;;4.80;2.30;;;9.10;99.90;;;;;;5043927;28;20334;-78
2023/10/18 10:53:45;;;;;;;9.73;3.05;;;9.10;99.90;;;;;;5089216;28;20311;-77
2023/10/18 10:56:17;;;;;;;9.10;3.08;;;9.20;99.90;;;;;;5067582;28;20033;-77
2023/10/18 10:58:55;;;;;;;5.93;2.30;;;9.30;99.90;;;;;;5057101;28;20048;-77
2023/10/18 11:01:39;;;;;;;4.75;2.53;;;9.30;99.90;;;;;;5053122;28;20584;-77
2023/10/18 11:04:49;;;;;;;6.78;2.63;;;9.30;99.90;;;;;;5087193;28;20478;-78
2023/10/18 11:07:21;;;;;;;6.45;2.40;;;9.40;99.90;;;;;;5057274;28;20037;-78
2023/10/18 11:09:47;;;;;;;8.65;2.70;;;9.40;99.90;;;;;;5076789;28;20617;-78
2023/10/18 11:12:17;;;;;;;7.07;2.78;;;9.40;99.90;;;;;;5061194;28;20045;-78
2023/10/18 11:14:43;;;;;;;3.90;1.88;;;9.40;99.90;;;;;;5060144;28;20041;-78
2023/10/18 11:20:12;;;;;;;4.75;2.08;;;9.50;99.90;;;;;;5059877;28;20060;-78
2023/10/18 11:22:41;;;;;;;3.95;1.83;;;9.50;99.90;;;;;;5077553;28;20024;-78
2023/10/18 11:25:09;;;;;;;5.00;2.50;;;9.60;99.90;;;;;;5057116;28;20498;-78
2023/10/18 11:27:37;;;;;;;4.57;2.00;;;9.60;99.90;;;;;;5043441;28;20037;-78
2023/10/18 11:30:15;;;;;;;8.93;2.20;;;9.60;99.90;;;;;;5056282;28;20047;-77
2023/10/18 11:32:48;;;;;;;5.95;2.00;;;9.60;99.90;;;;;;5061011;28;20098;-77
2023/10/18 11:35:25;;;;;;;5.70;2.47;;;9.60;99.90;;;;;;5041986;28;20117;-76
2023/10/18 11:37:51;;;;;;;5.28;2.13;;;9.70;99.90;;;;;;5058816;28;20044;-77
2023/10/18 11:40:29;;;;;;;7.00;2.25;;;9.70;99.90;;;;;;5052472;28;20044;-77
2023/10/18 11:43:04;;;;;;;5.75;2.15;;;9.70;99.90;;;;;;5059597;28;20040;-77
2023/10/18 11:45:30;;;;;;;6.07;2.03;;;9.80;99.90;;;;;;5075005;28;20029;-76
2023/10/18 11:47:58;;;;;;;4.90;2.30;;;9.80;99.90;;;;;;5062273;28;20041;-76
2023/10/18 11:50:47;;;;;;;6.10;2.42;;;9.80;99.90;;;;;;5064616;28;20044;-76
2023/10/18 11:53:22;;;;;;;7.32;2.50;;;9.90;99.90;;;;;;5060457;28;20786;-76
2023/10/18 11:55:56;;;;;;;4.30;1.92;;;9.90;99.90;;;;;;5064341;28;20083;-76
2023/10/18 11:58:23;;;;;;;4.82;2.13;;;9.90;99.90;;;;;;5058097;28;20067;-76
2023/10/18 12:00:55;;;;;;;5.70;2.47;;;10.00;99.90;;;;;;5056033;28;20271;-77
2023/10/18 12:03:23;;;;;;;4.78;2.05;;;10.00;99.90;;;;;;5057758;28;20040;-76
2023/10/18 12:05:50;;;;;;;4.78;1.90;;;10.00;99.90;;;;;;5060057;28;20067;-76
2023/10/18 12:08:17;;;;;;;6.90;2.90;;;10.00;99.90;;;;;;5069750;28;20033;-76
2023/10/18 12:10:43;;;;;;;5.75;2.03;;;10.00;99.90;;;;;;5070605;28;20236;-76
2023/10/18 12:13:16;;;;;;;6.00;1.83;;;10.10;99.90;;;;;;5069645;28;20599;-76
2023/10/18 12:15:42;;;;;;;4.25;1.85;;;10.10;99.90;;;;;;5061830;28;20493;-76
2023/10/18 12:18:14;;;;;;;6.57;2.00;;;10.10;99.90;;;;;;5086395;28;20585;-76
2023/10/18 12:20:45;;;;;;;5.60;2.33;;;10.10;99.90;;;;;;5056744;28;20055;-76
2023/10/18 12:23:18;;;;;;;6.43;2.40;;;10.10;99.90;;;;;;5069201;28;20043;-76
2023/10/18 12:25:45;;;;;;;5.47;2.10;;;10.20;99.90;;;;;;5082799;28;20052;-76
2023/10/18 12:28:35;;;;;;;4.03;2.00;;;10.20;99.90;;;;;;5083235;28;20032;-76
2023/10/18 12:31:09;;;;;;;7.25;2.47;;;10.20;99.90;;;;;;5041630;28;20045;-76
2023/10/18 12:33:35;;;;;;;7.65;2.53;;;10.20;99.90;;;;;;5069849;28;20127;-76
2023/10/18 12:36:01;;;;;;;6.03;2.58;;;10.20;99.90;;;;;;5075417;28;20128;-76
2023/10/18 12:38:43;;;;;;;5.40;2.33;;;10.20;99.90;;;;;;5103434;28;20123;-76
2023/10/18 12:41:18;;;;;;;6.13;2.42;;;10.20;99.90;;;;;;5051536;28;20505;-76
2023/10/18 12:43:44;;;;;;;6.10;2.45;;;10.30;99.90;;;;;;5069647;28;20539;-76
2023/10/18 12:46:15;;;;;;;4.40;2.13;;;10.30;99.90;;;;;;5083378;28;20028;-76
2023/10/18 12:48:41;;;;;;;11.85;2.28;;;10.30;99.90;;;;;;5089732;28;20050;-76
2023/10/18 12:51:09;;;;;;;4.82;1.80;;;10.30;99.90;;;;;;5082736;28;20095;-76
2023/10/18 12:56:33;;;;;;;7.75;2.00;;;10.30;99.90;;;;;;5045967;28;20080;-76
2023/10/18 13:04:06;;;;;;;7.68;2.05;;;10.30;99.90;;;;;;5061796;28;20051;-77
2023/10/18 13:06:35;;;;;;;4.90;1.88;;;10.30;99.90;;;;;;5066804;28;20058;-76
2023/10/18 13:09:19;;;;;;;4.95;1.73;;;10.40;99.90;;;;;;5068704;28;20078;-77
2023/10/18 13:14:31;;;;;;;4.68;2.20;;;10.40;99.90;;;;;;5059090;28;20083;-77
2023/10/18 13:17:03;;;;;;;6.60;2.10;;;10.40;99.90;;;;;;5053644;28;20052;-77
2023/10/18 13:19:30;;;;;;;5.47;2.42;;;10.50;99.90;;;;;;5060399;28;20060;-76
2023/10/18 13:21:56;;;;;;;6.43;2.45;;;10.50;99.90;;;;;;5062948;28;20137;-76
2023/10/18 13:26:54;;;;;;;5.03;2.35;;;10.50;99.90;;;;;;5068157;28;20036;-76
2023/10/18 13:31:49;;;;;;;4.18;2.08;;;10.50;99.90;;;;;;5056958;28;20045;-76
2023/10/18 13:34:18;;;;;;;5.53;2.42;;;10.50;99.90;;;;;;5064887;28;20048;-76
2023/10/18 13:36:54;;;;;;;4.93;1.73;;;10.60;99.90;;;;;;5065499;28;20262;-76
2023/10/18 13:39:22;;;;;;;;;;;10.60;99.90;;;;;;5049224;28;20033;-76
2023/10/18 13:41:52;;;;;;;5.18;2.30;;;10.60;99.90;;;;;;5061217;28;20455;-76
2023/10/18 13:44:22;;;;;;;3.67;1.60;;;10.60;99.90;;;;;;5064919;28;20045;-76
2023/10/18 13:46:51;;;;;;;3.83;1.95;;;10.70;99.90;;;;;;5063353;28;20115;-76
2023/10/18 13:49:18;;;;;;;5.00;2.75;;;10.70;99.90;;;;;;5067137;28;20047;-76
2023/10/18 13:51:45;;;;;;;6.20;2.63;;;10.70;99.90;;;;;;5043657;28;20330;-76
2023/10/18 13:54:12;;;;;;;4.75;1.90;;;10.70;99.90;;;;;;5061998;28;20042;-76
2023/10/18 13:56:39;;;;;;;4.78;1.77;;;10.60;99.90;;;;;;5060673;28;20037;-76
2023/10/18 13:59:04;;;;;;;5.38;2.40;;;10.60;99.90;;;;;;5044009;28;20486;-76
2023/10/18 14:01:31;;;;;;;5.40;2.15;;;10.60;99.90;;;;;;5045718;28;20083;-76
2023/10/18 14:04:01;;;;;;;7.38;2.55;;;10.60;99.90;;;;;;5066910;28;20126;-77
2023/10/18 14:06:30;;;;;;;7.22;2.28;;;10.50;99.90;;;;;;5045679;28;20066;-76
2023/10/18 14:08:57;;;;;;;9.05;2.97;;;10.50;99.90;;;;;;5066028;28;20528;-76
2023/10/18 14:11:23;;;;;;;8.38;2.53;;;10.50;99.90;;;;;;5043762;28;20032;-76
2023/10/18 14:13:49;;;;;;;9.55;2.78;;;10.50;99.90;;;;;;5048850;28;20040;-76